sensor_id;sensor_type;location;lat;lon;timestamp;pressure;altitude;pressure_sealevel;temperature;humidity
21433;BME280;18592;49.708;10.900;2024-01-16T00:01:35;97782.13;;;9.53;58.15
21433;BME280;18592;49.708;10.900;2024-01-16T00:03:37;97777.75;;;9.52;57.90
21433;BME280;18592;49.708;10.900;2024-01-16T00:05:39;97782.34;;;9.52;57.96
21433;BME280;18592;49.708;10.900;2024-01-16T00:07:41;97775.53;;;9.49;58.02
21433;BME280;18592;49.708;10.900;2024-01-16T00:09:42;97793.22;;;9.47;57.77
21433;BME280;18592;49.708;10.900;2024-01-16T00:11:44;97777.97;;;9.46;57.71
21433;BME280;18592;49.708;10.900;2024-01-16T00:13:46;97779.06;;;9.45;57.44
21433;BME280;18592;49.708;10.900;2024-01-16T00:15:47;97783.41;;;9.41;57.20
21433;BME280;18592;49.708;10.900;2024-01-16T00:17:50;97790.19;;;9.38;57.53
21433;BME280;18592;49.708;10.900;2024-01-16T00:19:53;97784.97;;;9.37;57.65
21433;BME280;18592;49.708;10.900;2024-01-16T00:21:54;97786.09;;;9.36;57.61
21433;BME280;18592;49.708;10.900;2024-01-16T00:23:56;97784.44;;;9.35;58.00
21433;BME280;18592;49.708;10.900;2024-01-16T00:25:57;97776.78;;;9.32;57.84
21433;BME280;18592;49.708;10.900;2024-01-16T00:27:59;97776.53;;;9.33;57.87
21433;BME280;18592;49.708;10.900;2024-01-16T00:30:00;97783.88;;;9.33;57.86
21433;BME280;18592;49.708;10.900;2024-01-16T00:32:02;97779.78;;;9.30;57.90
21433;BME280;18592;49.708;10.900;2024-01-16T00:34:03;97778.13;;;9.29;58.41
21433;BME280;18592;49.708;10.900;2024-01-16T00:36:05;97782.50;;;9.30;58.22
21433;BME280;18592;49.708;10.900;2024-01-16T00:38:07;97784.41;;;9.30;58.20
21433;BME280;18592;49.708;10.900;2024-01-16T00:40:09;97785.22;;;9.30;58.24
21433;BME280;18592;49.708;10.900;2024-01-16T00:42:10;97796.09;;;9.30;57.91
21433;BME280;18592;49.708;10.900;2024-01-16T00:44:12;97798.81;;;9.30;58.30
21433;BME280;18592;49.708;10.900;2024-01-16T00:46:14;97794.22;;;9.31;58.22
21433;BME280;18592;49.708;10.900;2024-01-16T00:48:15;97793.38;;;9.30;58.12
21433;BME280;18592;49.708;10.900;2024-01-16T00:50:17;97788.78;;;9.31;58.10
21433;BME280;18592;49.708;10.900;2024-01-16T00:52:19;97792.56;;;9.30;57.83
21433;BME280;18592;49.708;10.900;2024-01-16T00:54:20;97798.81;;;9.30;57.51
21433;BME280;18592;49.708;10.900;2024-01-16T00:56:22;97795.56;;;9.28;57.70
21433;BME280;18592;49.708;10.900;2024-01-16T00:58:24;97799.34;;;9.27;57.56
21433;BME280;18592;49.708;10.900;2024-01-16T01:00:25;97792.50;;;9.25;57.24
21433;BME280;18592;49.708;10.900;2024-01-16T01:02:27;97808.00;;;9.24;57.33
21433;BME280;18592;49.708;10.900;2024-01-16T01:04:29;97795.75;;;9.22;57.49
21433;BME280;18592;49.708;10.900;2024-01-16T01:06:31;97803.66;;;9.23;57.86
21433;BME280;18592;49.708;10.900;2024-01-16T01:08:32;97810.19;;;9.22;57.95
21433;BME280;18592;49.708;10.900;2024-01-16T01:10:34;97804.22;;;9.25;57.91
21433;BME280;18592;49.708;10.900;2024-01-16T01:12:35;97809.66;;;9.25;58.69
21433;BME280;18592;49.708;10.900;2024-01-16T01:14:37;97802.06;;;9.27;58.30
21433;BME280;18592;49.708;10.900;2024-01-16T01:16:39;97804.78;;;9.27;58.47
21433;BME280;18592;49.708;10.900;2024-01-16T01:18:40;97809.16;;;9.28;58.23
21433;BME280;18592;49.708;10.900;2024-01-16T01:20:42;97807.50;;;9.27;58.62
21433;BME280;18592;49.708;10.900;2024-01-16T01:22:45;97809.69;;;9.30;58.71
21433;BME280;18592;49.708;10.900;2024-01-16T01:24:46;97818.69;;;9.31;58.13
21433;BME280;18592;49.708;10.900;2024-01-16T01:26:48;97813.78;;;9.33;58.47
21433;BME280;18592;49.708;10.900;2024-01-16T01:28:49;97812.69;;;9.34;58.00
21433;BME280;18592;49.708;10.900;2024-01-16T01:30:51;97820.84;;;9.34;58.06
21433;BME280;18592;49.708;10.900;2024-01-16T01:32:53;97826.28;;;9.34;57.97
21433;BME280;18592;49.708;10.900;2024-01-16T01:34:54;97829.28;;;9.32;58.47
21433;BME280;18592;49.708;10.900;2024-01-16T01:36:56;97834.72;;;9.32;58.19
21433;BME280;18592;49.708;10.900;2024-01-16T01:38:59;97835.56;;;9.33;58.20
21433;BME280;18592;49.708;10.900;2024-01-16T01:41:01;97824.66;;;9.33;58.27
21433;BME280;18592;49.708;10.900;2024-01-16T01:43:22;97825.50;;;9.33;58.41
21433;BME280;18592;49.708;10.900;2024-01-16T01:45:25;97842.88;;;9.32;57.83
21433;BME280;18592;49.708;10.900;2024-01-16T01:47:27;97840.44;;;9.31;57.83
21433;BME280;18592;49.708;10.900;2024-01-16T01:49:30;97843.16;;;9.31;58.31
21433;BME280;18592;49.708;10.900;2024-01-16T01:51:32;97847.50;;;9.32;57.80
21433;BME280;18592;49.708;10.900;2024-01-16T01:53:35;97853.47;;;9.34;58.35
21433;BME280;18592;49.708;10.900;2024-01-16T01:55:37;97855.13;;;9.35;58.00
21433;BME280;18592;49.708;10.900;2024-01-16T01:57:39;97858.13;;;9.33;58.39
21433;BME280;18592;49.708;10.900;2024-01-16T01:59:41;97855.41;;;9.33;58.20
21433;BME280;18592;49.708;10.900;2024-01-16T02:01:45;97853.75;;;9.32;58.23
21433;BME280;18592;49.708;10.900;2024-01-16T02:03:49;97859.50;;;9.36;58.05
21433;BME280;18592;49.708;10.900;2024-01-16T02:05:52;97859.75;;;9.34;58.18
21433;BME280;18592;49.708;10.900;2024-01-16T02:07:54;97873.91;;;9.36;58.56
21433;BME280;18592;49.708;10.900;2024-01-16T02:09:55;97866.34;;;9.38;58.15
21433;BME280;18592;49.708;10.900;2024-01-16T02:11:57;97870.13;;;9.37;58.34
21433;BME280;18592;49.708;10.900;2024-01-16T02:13:58;97873.66;;;9.38;58.44
21433;BME280;18592;49.708;10.900;2024-01-16T02:16:00;97872.56;;;9.39;58.59
21433;BME280;18592;49.708;10.900;2024-01-16T02:18:02;97879.66;;;9.40;58.06
21433;BME280;18592;49.708;10.900;2024-01-16T02:20:04;97883.19;;;9.40;58.25
21433;BME280;18592;49.708;10.900;2024-01-16T02:22:16;97878.81;;;9.39;58.34
21433;BME280;18592;49.708;10.900;2024-01-16T02:24:20;97882.94;;;9.42;58.66
21433;BME280;18592;49.708;10.900;2024-01-16T02:26:22;97882.94;;;9.42;58.61
21433;BME280;18592;49.708;10.900;2024-01-16T02:28:23;97885.66;;;9.42;58.54
21433;BME280;18592;49.708;10.900;2024-01-16T02:30:25;97885.41;;;9.43;58.26
21433;BME280;18592;49.708;10.900;2024-01-16T02:32:27;97881.59;;;9.44;58.47
21433;BME280;18592;49.708;10.900;2024-01-16T02:34:28;97889.50;;;9.46;58.27
21433;BME280;18592;49.708;10.900;2024-01-16T02:36:30;97889.50;;;9.46;57.85
21433;BME280;18592;49.708;10.900;2024-01-16T02:38:32;97896.28;;;9.43;57.26
21433;BME280;18592;49.708;10.900;2024-01-16T02:40:33;97893.81;;;9.42;57.59
21433;BME280;18592;49.708;10.900;2024-01-16T02:42:35;97900.06;;;9.42;57.82
21433;BME280;18592;49.708;10.900;2024-01-16T02:44:39;97900.06;;;9.42;57.72
21433;BME280;18592;49.708;10.900;2024-01-16T02:46:41;97907.41;;;9.42;57.29
21433;BME280;18592;49.708;10.900;2024-01-16T02:48:43;97913.94;;;9.41;57.59
21433;BME280;18592;49.708;10.900;2024-01-16T02:50:44;97902.25;;;9.40;57.76
21433;BME280;18592;49.708;10.900;2024-01-16T02:52:46;97914.75;;;9.41;57.65
21433;BME280;18592;49.708;10.900;2024-01-16T02:54:48;97901.41;;;9.40;57.39
21433;BME280;18592;49.708;10.900;2024-01-16T02:56:49;97901.69;;;9.38;57.47
21433;BME280;18592;49.708;10.900;2024-01-16T02:58:51;97904.41;;;9.38;57.48
21433;BME280;18592;49.708;10.900;2024-01-16T03:00:52;97912.81;;;9.37;57.60
21433;BME280;18592;49.708;10.900;2024-01-16T03:02:54;97920.72;;;9.38;57.83
21433;BME280;18592;49.708;10.900;2024-01-16T03:04:56;97914.19;;;9.39;57.90
21433;BME280;18592;49.708;10.900;2024-01-16T03:06:57;97915.31;;;9.43;57.79
21433;BME280;18592;49.708;10.900;2024-01-16T03:08:59;97919.66;;;9.44;57.94
21433;BME280;18592;49.708;10.900;2024-01-16T03:11:01;97915.06;;;9.45;58.14
21433;BME280;18592;49.708;10.900;2024-01-16T03:13:02;97921.31;;;9.45;57.77
21433;BME280;18592;49.708;10.900;2024-01-16T03:15:04;97925.94;;;9.45;57.88
21433;BME280;18592;49.708;10.900;2024-01-16T03:17:07;97922.94;;;9.46;57.82
21433;BME280;18592;49.708;10.900;2024-01-16T03:19:08;97922.16;;;9.46;57.84
21433;BME280;18592;49.708;10.900;2024-01-16T03:21:12;97924.59;;;9.47;58.47
21433;BME280;18592;49.708;10.900;2024-01-16T03:23:14;97929.75;;;9.49;58.62
21433;BME280;18592;49.708;10.900;2024-01-16T03:25:16;97924.09;;;9.50;58.49
21433;BME280;18592;49.708;10.900;2024-01-16T03:27:18;97931.97;;;9.52;58.11
21433;BME280;18592;49.708;10.900;2024-01-16T03:29:19;97924.91;;;9.51;58.24
21433;BME280;18592;49.708;10.900;2024-01-16T03:31:21;97923.25;;;9.50;57.80
21433;BME280;18592;49.708;10.900;2024-01-16T03:33:23;97934.97;;;9.50;58.07
21433;BME280;18592;49.708;10.900;2024-01-16T03:35:25;97930.34;;;9.51;58.09
21433;BME280;18592;49.708;10.900;2024-01-16T03:37:26;97929.53;;;9.50;58.29
21433;BME280;18592;49.708;10.900;2024-01-16T03:39:28;97930.34;;;9.51;58.41
21433;BME280;18592;49.708;10.900;2024-01-16T03:41:29;97931.97;;;9.52;58.19
21433;BME280;18592;49.708;10.900;2024-01-16T03:43:31;97937.41;;;9.52;57.88
21433;BME280;18592;49.708;10.900;2024-01-16T03:45:32;97937.97;;;9.54;58.37
21433;BME280;18592;49.708;10.900;2024-01-16T03:47:34;97937.44;;;9.57;58.21
21433;BME280;18592;49.708;10.900;2024-01-16T03:49:36;97937.78;;;9.61;58.44
21433;BME280;18592;49.708;10.900;2024-01-16T03:51:37;97937.50;;;9.62;58.33
21433;BME280;18592;49.708;10.900;2024-01-16T03:53:39;97931.53;;;9.65;58.53
21433;BME280;18592;49.708;10.900;2024-01-16T03:55:40;97945.16;;;9.65;58.15
21433;BME280;18592;49.708;10.900;2024-01-16T03:57:42;97929.66;;;9.66;57.88
21433;BME280;18592;49.708;10.900;2024-01-16T03:59:43;97935.09;;;9.66;57.83
21433;BME280;18592;49.708;10.900;2024-01-16T04:01:45;97947.03;;;9.65;57.84
21433;BME280;18592;49.708;10.900;2024-01-16T04:03:46;97940.78;;;9.64;57.91
21433;BME280;18592;49.708;10.900;2024-01-16T04:05:48;97941.03;;;9.63;57.54
21433;BME280;18592;49.708;10.900;2024-01-16T04:07:50;97949.22;;;9.63;57.83
21433;BME280;18592;49.708;10.900;2024-01-16T04:09:51;97947.56;;;9.62;57.81
21433;BME280;18592;49.708;10.900;2024-01-16T04:11:53;97946.47;;;9.63;57.50
21433;BME280;18592;49.708;10.900;2024-01-16T04:13:54;97940.50;;;9.61;57.87
21433;BME280;18592;49.708;10.900;2024-01-16T04:15:56;97941.31;;;9.61;57.44
21433;BME280;18592;49.708;10.900;2024-01-16T04:17:57;97942.38;;;9.60;57.93
21433;BME280;18592;49.708;10.900;2024-01-16T04:19:59;97938.31;;;9.63;58.15
21433;BME280;18592;49.708;10.900;2024-01-16T04:22:00;97943.50;;;9.64;58.39
21433;BME280;18592;49.708;10.900;2024-01-16T04:24:02;97941.34;;;9.66;57.92
21433;BME280;18592;49.708;10.900;2024-01-16T04:26:04;97944.06;;;9.66;58.08
21433;BME280;18592;49.708;10.900;2024-01-16T04:28:06;97932.38;;;9.66;58.10
21433;BME280;18592;49.708;10.900;2024-01-16T04:30:08;97939.44;;;9.67;57.51
21433;BME280;18592;49.708;10.900;2024-01-16T04:32:09;97929.38;;;9.67;57.79
21433;BME280;18592;49.708;10.900;2024-01-16T04:34:11;97926.41;;;9.69;57.83
21433;BME280;18592;49.708;10.900;2024-01-16T04:36:13;97934.31;;;9.70;58.16
21433;BME280;18592;49.708;10.900;2024-01-16T04:38:14;97923.41;;;9.70;58.24
21433;BME280;18592;49.708;10.900;2024-01-16T04:40:16;97930.25;;;9.73;58.28
21433;BME280;18592;49.708;10.900;2024-01-16T04:42:17;97932.44;;;9.76;57.92
21433;BME280;18592;49.708;10.900;2024-01-16T04:44:19;97921.28;;;9.77;58.25
21433;BME280;18592;49.708;10.900;2024-01-16T04:46:20;97930.81;;;9.80;57.87
21433;BME280;18592;49.708;10.900;2024-01-16T04:48:22;97933.31;;;9.81;58.04
21433;BME280;18592;49.708;10.900;2024-01-16T04:50:23;97929.47;;;9.82;58.15
21433;BME280;18592;49.708;10.900;2024-01-16T04:52:32;97930.88;;;9.85;57.74
21433;BME280;18592;49.708;10.900;2024-01-16T04:54:34;97929.25;;;9.84;58.08
21433;BME280;18592;49.708;10.900;2024-01-16T04:56:35;97936.31;;;9.85;58.00
21433;BME280;18592;49.708;10.900;2024-01-16T04:58:38;97926.53;;;9.84;57.81
21433;BME280;18592;49.708;10.900;2024-01-16T05:00:39;97918.59;;;9.82;57.60
21433;BME280;18592;49.708;10.900;2024-01-16T05:02:41;97927.03;;;9.81;57.48
21433;BME280;18592;49.708;10.900;2024-01-16T05:04:42;97931.09;;;9.78;57.26
21433;BME280;18592;49.708;10.900;2024-01-16T05:06:44;97922.38;;;9.76;57.10
21433;BME280;18592;49.708;10.900;2024-01-16T05:08:45;97931.34;;;9.77;57.49
21433;BME280;18592;49.708;10.900;2024-01-16T05:10:47;97934.34;;;9.75;57.50
21433;BME280;18592;49.708;10.900;2024-01-16T05:12:48;97927.00;;;9.76;57.36
21433;BME280;18592;49.708;10.900;2024-01-16T05:14:50;97925.34;;;9.75;57.68
21433;BME280;18592;49.708;10.900;2024-01-16T05:16:52;97930.28;;;9.78;57.87
21433;BME280;18592;49.708;10.900;2024-01-16T05:18:53;97927.03;;;9.81;57.83
21433;BME280;18592;49.708;10.900;2024-01-16T05:20:55;97924.03;;;9.82;58.31
21433;BME280;18592;49.708;10.900;2024-01-16T05:23:01;97924.88;;;9.83;57.94
21433;BME280;18592;49.708;10.900;2024-01-16T05:25:02;97921.06;;;9.84;58.15
21433;BME280;18592;49.708;10.900;2024-01-16T05:27:04;97917.00;;;9.86;57.88
21433;BME280;18592;49.708;10.900;2024-01-16T05:29:10;97921.63;;;9.86;57.88
21433;BME280;18592;49.708;10.900;2024-01-16T05:31:13;97924.91;;;9.88;57.85
21433;BME280;18592;49.708;10.900;2024-01-16T05:33:15;97924.63;;;9.89;58.17
21433;BME280;18592;49.708;10.900;2024-01-16T05:35:17;97917.56;;;9.88;58.10
21433;BME280;18592;49.708;10.900;2024-01-16T05:37:19;97920.84;;;9.90;57.87
21433;BME280;18592;49.708;10.900;2024-01-16T05:39:21;97916.78;;;9.93;57.81
21433;BME280;18592;49.708;10.900;2024-01-16T05:41:23;97912.16;;;9.93;58.11
21433;BME280;18592;49.708;10.900;2024-01-16T05:43:25;97924.66;;;9.94;58.08
21433;BME280;18592;49.708;10.900;2024-01-16T05:45:26;97911.03;;;9.94;58.09
21433;BME280;18592;49.708;10.900;2024-01-16T05:47:28;97914.59;;;9.95;57.96
21433;BME280;18592;49.708;10.900;2024-01-16T05:49:29;97920.03;;;9.95;57.30
21433;BME280;18592;49.708;10.900;2024-01-16T05:51:31;97914.03;;;9.93;57.65
21433;BME280;18592;49.708;10.900;2024-01-16T05:53:33;97918.66;;;9.92;57.76
21433;BME280;18592;49.708;10.900;2024-01-16T05:55:34;97920.03;;;9.95;57.65
21433;BME280;18592;49.708;10.900;2024-01-16T05:57:38;97927.66;;;9.93;57.34
21433;BME280;18592;49.708;10.900;2024-01-16T05:59:40;97916.47;;;9.89;57.10
21433;BME280;18592;49.708;10.900;2024-01-16T06:01:41;97918.13;;;9.90;57.51
21433;BME280;18592;49.708;10.900;2024-01-16T06:03:43;97915.38;;;9.90;57.18
21433;BME280;18592;49.708;10.900;2024-01-16T06:05:47;97920.28;;;9.88;57.16
21433;BME280;18592;49.708;10.900;2024-01-16T06:07:49;97918.06;;;9.85;57.49
21433;BME280;18592;49.708;10.900;2024-01-16T06:09:50;97922.69;;;9.85;57.44
21433;BME280;18592;49.708;10.900;2024-01-16T06:11:52;97919.16;;;9.84;57.48
21433;BME280;18592;49.708;10.900;2024-01-16T06:13:53;97919.16;;;9.84;57.42
21433;BME280;18592;49.708;10.900;2024-01-16T06:15:55;97923.53;;;9.85;57.10
21433;BME280;18592;49.708;10.900;2024-01-16T06:17:57;97926.25;;;9.85;56.98
21433;BME280;18592;49.708;10.900;2024-01-16T06:19:58;97930.03;;;9.84;57.41
21433;BME280;18592;49.708;10.900;2024-01-16T06:22:00;97935.19;;;9.81;57.13
21433;BME280;18592;49.708;10.900;2024-01-16T06:24:01;97928.09;;;9.80;56.84
21433;BME280;18592;49.708;10.900;2024-01-16T06:26:03;97934.66;;;9.79;57.04
21433;BME280;18592;49.708;10.900;2024-01-16T06:28:05;97931.63;;;9.75;56.84
21433;BME280;18592;49.708;10.900;2024-01-16T06:30:07;97936.75;;;9.72;56.85
21433;BME280;18592;49.708;10.900;2024-01-16T06:32:10;97933.47;;;9.70;56.70
21433;BME280;18592;49.708;10.900;2024-01-16T06:34:11;97941.91;;;9.68;56.98
21433;BME280;18592;49.708;10.900;2024-01-16T06:36:16;97928.31;;;9.68;57.40
21433;BME280;18592;49.708;10.900;2024-01-16T06:38:17;97938.91;;;9.70;57.01
21433;BME280;18592;49.708;10.900;2024-01-16T06:40:19;97934.00;;;9.67;57.11
21433;BME280;18592;49.708;10.900;2024-01-16T06:42:22;97941.09;;;9.68;57.07
21433;BME280;18592;49.708;10.900;2024-01-16T06:44:23;97947.59;;;9.67;57.20
21433;BME280;18592;49.708;10.900;2024-01-16T06:46:25;97946.81;;;9.66;57.21
21433;BME280;18592;49.708;10.900;2024-01-16T06:48:26;97940.53;;;9.66;56.94
21433;BME280;18592;49.708;10.900;2024-01-16T06:50:28;97952.47;;;9.65;57.32
21433;BME280;18592;49.708;10.900;2024-01-16T06:52:30;97953.59;;;9.64;57.27
21433;BME280;18592;49.708;10.900;2024-01-16T06:54:32;97960.09;;;9.63;57.16
21433;BME280;18592;49.708;10.900;2024-01-16T06:56:33;97960.66;;;9.65;57.57
21433;BME280;18592;49.708;10.900;2024-01-16T06:58:35;97965.56;;;9.68;58.05
21433;BME280;18592;49.708;10.900;2024-01-16T07:00:39;97969.41;;;9.72;58.31
21433;BME280;18592;49.708;10.900;2024-01-16T07:02:43;97962.38;;;9.76;58.21
21433;BME280;18592;49.708;10.900;2024-01-16T07:04:44;97977.09;;;9.80;58.53
21433;BME280;18592;49.708;10.900;2024-01-16T07:06:46;97973.59;;;9.84;58.70
21433;BME280;18592;49.708;10.900;2024-01-16T07:08:48;97973.06;;;9.87;58.39
21433;BME280;18592;49.708;10.900;2024-01-16T07:10:50;97984.50;;;9.89;58.17
21433;BME280;18592;49.708;10.900;2024-01-16T07:12:52;97982.09;;;9.93;58.50
21433;BME280;18592;49.708;10.900;2024-01-16T07:14:53;97976.97;;;9.96;58.51
21433;BME280;18592;49.708;10.900;2024-01-16T07:16:55;97973.47;;;10.01;58.74
21433;BME280;18592;49.708;10.900;2024-01-16T07:18:56;97976.22;;;10.06;58.81
21433;BME280;18592;49.708;10.900;2024-01-16T07:20:58;97986.31;;;10.10;58.85
21433;BME280;18592;49.708;10.900;2024-01-16T07:23:00;97978.22;;;10.15;58.51
21433;BME280;18592;49.708;10.900;2024-01-16T07:25:01;97979.31;;;10.19;58.53
21433;BME280;18592;49.708;10.900;2024-01-16T07:27:11;97982.34;;;10.23;58.61
21433;BME280;18592;49.708;10.900;2024-01-16T07:29:15;97979.66;;;10.28;59.11
21433;BME280;18592;49.708;10.900;2024-01-16T07:31:19;97980.78;;;10.32;58.74
21433;BME280;18592;49.708;10.900;2024-01-16T07:33:21;97978.09;;;10.37;58.68
21433;BME280;18592;49.708;10.900;2024-01-16T07:35:22;97981.38;;;10.39;58.80
21433;BME280;18592;49.708;10.900;2024-01-16T07:37:27;97973.47;;;10.43;58.24
21433;BME280;18592;49.708;10.900;2024-01-16T07:39:28;97972.94;;;10.46;58.48
21433;BME280;18592;49.708;10.900;2024-01-16T07:41:30;97981.13;;;10.46;57.87
21433;BME280;18592;49.708;10.900;2024-01-16T07:43:32;97977.31;;;10.47;58.12
21433;BME280;18592;49.708;10.900;2024-01-16T07:45:34;97975.41;;;10.47;57.80
21433;BME280;18592;49.708;10.900;2024-01-16T07:47:35;97978.16;;;10.47;57.26
21433;BME280;18592;49.708;10.900;2024-01-16T07:49:37;97984.38;;;10.48;57.42
21433;BME280;18592;49.708;10.900;2024-01-16T07:51:39;97985.50;;;10.47;57.30
21433;BME280;18592;49.708;10.900;2024-01-16T07:53:41;97982.50;;;10.48;56.88
21433;BME280;18592;49.708;10.900;2024-01-16T07:55:43;97989.03;;;10.47;56.99
21433;BME280;18592;49.708;10.900;2024-01-16T07:57:47;97986.31;;;10.47;57.33
21433;BME280;18592;49.708;10.900;2024-01-16T07:59:49;97989.59;;;10.49;57.30
21433;BME280;18592;49.708;10.900;2024-01-16T08:01:50;97987.94;;;10.48;57.05
21433;BME280;18592;49.708;10.900;2024-01-16T08:03:52;97986.31;;;10.47;57.21
21433;BME280;18592;49.708;10.900;2024-01-16T08:05:54;97987.94;;;10.48;57.20
21433;BME280;18592;49.708;10.900;2024-01-16T08:07:56;97978.16;;;10.47;57.01
21433;BME280;18592;49.708;10.900;2024-01-16T08:09:58;97978.94;;;10.48;56.88
21433;BME280;18592;49.708;10.900;2024-01-16T08:11:59;97989.03;;;10.47;57.13
21433;BME280;18592;49.708;10.900;2024-01-16T08:14:03;97984.66;;;10.46;57.07
21433;BME280;18592;49.708;10.900;2024-01-16T08:16:04;97985.50;;;10.47;56.93
21433;BME280;18592;49.708;10.900;2024-01-16T08:18:07;97990.94;;;10.47;57.01
21433;BME280;18592;49.708;10.900;2024-01-16T08:20:10;97995.56;;;10.46;56.89
21433;BME280;18592;49.708;10.900;2024-01-16T08:22:12;97996.63;;;10.45;56.93
21433;BME280;18592;49.708;10.900;2024-01-16T08:24:14;97991.19;;;10.45;56.95
21433;BME280;18592;49.708;10.900;2024-01-16T08:26:15;97995.84;;;10.45;57.10
21433;BME280;18592;49.708;10.900;2024-01-16T08:28:18;97999.34;;;10.45;56.88
21433;BME280;18592;49.708;10.900;2024-01-16T08:30:23;97995.56;;;10.46;57.07
21433;BME280;18592;49.708;10.900;2024-01-16T08:32:25;97999.66;;;10.49;57.34
21433;BME280;18592;49.708;10.900;2024-01-16T08:34:28;98000.22;;;10.51;56.94
21433;BME280;18592;49.708;10.900;2024-01-16T08:36:30;98007.31;;;10.52;56.93
21433;BME280;18592;49.708;10.900;2024-01-16T08:38:34;98011.94;;;10.51;56.55
21433;BME280;18592;49.708;10.900;2024-01-16T08:40:35;98015.50;;;10.52;57.03
21433;BME280;18592;49.708;10.900;2024-01-16T08:42:37;98013.31;;;10.54;56.93
21433;BME280;18592;49.708;10.900;2024-01-16T08:44:38;98017.41;;;10.56;57.13
21433;BME280;18592;49.708;10.900;2024-01-16T08:46:40;98010.63;;;10.59;57.25
21433;BME280;18592;49.708;10.900;2024-01-16T08:48:42;98016.38;;;10.62;57.19
21433;BME280;18592;49.708;10.900;2024-01-16T08:50:43;98016.94;;;10.64;56.89
21433;BME280;18592;49.708;10.900;2024-01-16T08:52:45;98015.81;;;10.65;56.88
21433;BME280;18592;49.708;10.900;2024-01-16T08:54:47;98018.03;;;10.68;57.12
21433;BME280;18592;49.708;10.900;2024-01-16T08:56:49;98020.50;;;10.70;57.24
21433;BME280;18592;49.708;10.900;2024-01-16T08:58:54;98027.06;;;10.74;56.89
21433;BME280;18592;49.708;10.900;2024-01-16T09:00:55;98022.16;;;10.76;56.99
21433;BME280;18592;49.708;10.900;2024-01-16T09:02:57;98016.97;;;10.74;56.63
21433;BME280;18592;49.708;10.900;2024-01-16T09:05:00;98021.06;;;10.77;57.29
21433;BME280;18592;49.708;10.900;2024-01-16T09:07:02;98023.53;;;10.78;57.32
21433;BME280;18592;49.708;10.900;2024-01-16T09:09:06;98022.72;;;10.83;57.25
21433;BME280;18592;49.708;10.900;2024-01-16T09:11:07;98023.03;;;10.87;57.50
21433;BME280;18592;49.708;10.900;2024-01-16T09:13:09;98015.94;;;10.91;57.30
21433;BME280;18592;49.708;10.900;2024-01-16T09:15:10;98014.59;;;10.93;57.67
21433;BME280;18592;49.708;10.900;2024-01-16T09:17:12;98013.22;;;10.96;57.33
21433;BME280;18592;49.708;10.900;2024-01-16T09:19:14;98013.25;;;11.01;57.33
21433;BME280;18592;49.708;10.900;2024-01-16T09:21:17;98020.66;;;11.05;57.27
21433;BME280;18592;49.708;10.900;2024-01-16T09:23:18;98017.66;;;11.07;57.20
21433;BME280;18592;49.708;10.900;2024-01-16T09:25:20;98013.56;;;11.09;57.40
21433;BME280;18592;49.708;10.900;2024-01-16T09:27:22;98028.28;;;11.13;57.34
21433;BME280;18592;49.708;10.900;2024-01-16T09:29:24;98031.31;;;11.17;57.51
21433;BME280;18592;49.708;10.900;2024-01-16T09:31:26;98027.53;;;11.23;57.45
21433;BME280;18592;49.708;10.900;2024-01-16T09:33:27;98034.09;;;11.27;57.49
21433;BME280;18592;49.708;10.900;2024-01-16T09:35:32;98026.72;;;11.27;57.19
21433;BME280;18592;49.708;10.900;2024-01-16T09:37:35;98033.28;;;11.31;57.03
21433;BME280;18592;49.708;10.900;2024-01-16T09:39:36;98042.00;;;11.33;57.07
21433;BME280;18592;49.708;10.900;2024-01-16T09:41:39;98041.22;;;11.33;56.54
21433;BME280;18592;49.708;10.900;2024-01-16T09:43:41;98036.00;;;11.31;56.34
21433;BME280;18592;49.708;10.900;2024-01-16T09:45:43;98033.56;;;11.30;56.34
21433;BME280;18592;49.708;10.900;2024-01-16T09:47:47;98030.00;;;11.29;56.18
21433;BME280;18592;49.708;10.900;2024-01-16T09:49:54;98044.47;;;11.30;56.67
21433;BME280;18592;49.708;10.900;2024-01-16T09:51:56;98034.38;;;11.30;56.65
21433;BME280;18592;49.708;10.900;2024-01-16T09:54:00;98034.38;;;11.30;56.64
21433;BME280;18592;49.708;10.900;2024-01-16T09:56:09;98035.19;;;11.31;56.34
21433;BME280;18592;49.708;10.900;2024-01-16T09:58:19;98026.44;;;11.29;56.23
21433;BME280;18592;49.708;10.900;2024-01-16T10:00:27;98033.56;;;11.30;56.28
21433;BME280;18592;49.708;10.900;2024-01-16T10:02:29;98030.81;;;11.30;56.27
21433;BME280;18592;49.708;10.900;2024-01-16T10:04:31;98030.00;;;11.29;56.21
21433;BME280;18592;49.708;10.900;2024-01-16T10:06:33;98033.00;;;11.28;56.07
21433;BME280;18592;49.708;10.900;2024-01-16T10:08:35;98032.72;;;11.24;55.45
21433;BME280;18592;49.708;10.900;2024-01-16T10:10:37;98034.63;;;11.24;55.65
21433;BME280;18592;49.708;10.900;2024-01-16T10:12:49;98035.16;;;11.21;55.53
21433;BME280;18592;49.708;10.900;2024-01-16T10:14:51;98033.53;;;11.20;55.45
21433;BME280;18592;49.708;10.900;2024-01-16T10:17:01;98027.53;;;11.18;55.69
21433;BME280;18592;49.708;10.900;2024-01-16T10:19:19;98028.31;;;11.18;55.98
21433;BME280;18592;49.708;10.900;2024-01-16T10:21:29;98026.97;;;11.21;56.05
21433;BME280;18592;49.708;10.900;2024-01-16T10:23:33;98027.78;;;11.21;55.89
21433;BME280;18592;49.708;10.900;2024-01-16T10:25:35;98027.53;;;11.23;56.27
21433;BME280;18592;49.708;10.900;2024-01-16T10:27:40;98028.09;;;11.25;56.40
21433;BME280;18592;49.708;10.900;2024-01-16T10:29:55;98017.72;;;11.27;56.36
21433;BME280;18592;49.708;10.900;2024-01-16T10:31:58;98021.53;;;11.31;56.53
21433;BME280;18592;49.708;10.900;2024-01-16T10:34:00;98021.28;;;11.32;56.47
21433;BME280;18592;49.708;10.900;2024-01-16T10:38:20;98016.91;;;11.36;55.94
21433;BME280;18592;49.708;10.900;2024-01-16T10:40:23;98019.41;;;11.38;56.37
21433;BME280;18592;49.708;10.900;2024-01-16T10:42:32;98018.28;;;11.39;56.06
21433;BME280;18592;49.708;10.900;2024-01-16T10:44:34;98013.38;;;11.41;55.86
21433;BME280;18592;49.708;10.900;2024-01-16T10:46:36;98014.19;;;11.41;56.32
21433;BME280;18592;49.708;10.900;2024-01-16T10:48:40;98005.75;;;11.43;56.15